Flight Track Log - Related Links

Times and Time Zones

All times are in EDT time to prevent confusion due to time zone crossing. See the C-GONN flight status page for this flight to view local times or setup timezone preferences in your user account.

Time Position Orientation Groundspeed Altitude Reporting Facility
EDT Latitude Longitude Course Direction KTS MPH feet Rate Location/Type
Tue 02:58:46 PM 51.0167 -114.1000 360° North 50 58 3,600  Level Edmonton Center
Tue 02:59:46 PM 51.0167 -114.1000 360° North 10 12 3,600  Level Edmonton Center
Tue 03:00:46 PM 51.0167 -114.1000 360° North 60 69 3,600  Level Edmonton Center
Tue 03:03:46 PM 51.0167 -114.1000 180° South 20 23 3,600  Level Edmonton Center
Tue 03:05:00 PM 51.0141 -114.2133 264° West  Level Estimated
Tue 03:12:00 PM 50.9974 -114.8561 270° West  Level Estimated
Tue 03:13:00 PM 50.9947 -114.9479 264° West  Level Estimated
Tue 03:14:00 PM 51.0039 -115.0386 279° West  Level FlightAware Approximate
Tue 03:15:00 PM 51.0130 -115.1294 279° West  Level FlightAware Approximate
Tue 03:16:00 PM 51.0097 -115.2212 259° West  Level Estimated
Tue 03:17:00 PM 51.0063 -115.3129 270° West  Level Estimated
Tue 03:18:00 PM 51.0021 -115.4046 266° West  Level FlightAware Approximate
Tue 03:19:00 PM 50.9986 -115.4963 263° West  Level Estimated
Tue 03:20:00 PM 50.9909 -115.5874 262° West  Level FlightAware Approximate
Tue 03:21:00 PM 50.9831 -115.6784 262° West  Level FlightAware Approximate
Tue 03:22:00 PM 50.9752 -115.7694 262° West  Level FlightAware Approximate
Tue 03:23:00 PM 50.9673 -115.8604 262° West  Level FlightAware Approximate
Tue 03:24:00 PM 50.9593 -115.9513 262° West  Level FlightAware Approximate
Tue 03:25:00 PM 50.9512 -116.0422 262° West  Level FlightAware Approximate
Tue 03:26:00 PM 50.9430 -116.1331 262° West  Level FlightAware Approximate
Tue 03:27:00 PM 50.9348 -116.2239 262° West  Level FlightAware Approximate
Tue 03:28:00 PM 50.9265 -116.3147 262° West  Level FlightAware Approximate
Tue 03:29:00 PM 50.9182 -116.4055 262° West  Level FlightAware Approximate
Tue 03:30:00 PM 50.9099 -116.4950 262° West  Level FlightAware Approximate
Tue 03:30:21 PM 51.0833 -114.0333 262° West 90 104 3,600  Level Edmonton Center
Tue 03:31:00 PM 50.9015 -116.5845 262° West  Level FlightAware Approximate
Tue 03:31:21 PM 51.0500 -114.0500 197° South 120 138 5,400  Level Edmonton Center
Tue 03:32:00 PM 50.8983 -116.6749 262° West  Level Estimated
Tue 03:32:21 PM 51.0167 -114.0667 197° South 150 173 6,500  Level Edmonton Center
Tue 03:33:00 PM 50.8901 -116.7644 262° West  Level FlightAware Approximate
Tue 03:33:21 PM 51.0500 -114.1333 309° West 140 161 7,700  Level Edmonton Center
Tue 03:34:00 PM 50.8818 -116.8539 262° West  Level FlightAware Approximate
Tue 03:34:21 PM 51.0500 -114.1833 270° West 160 184 8,600  Level Edmonton Center
Tue 03:35:21 PM 51.0667 -114.2667 288° West 170 196 9,400 950 Climbing Edmonton Center
Tue 03:36:21 PM 51.0667 -114.3500 270° West 170 196 10,500 950 Climbing Edmonton Center
Tue 03:37:21 PM 51.0500 -114.4333 252° West 180 207 11,300 900 Climbing Edmonton Center
Tue 03:38:21 PM 51.0500 -114.5167 270° West 180 207 12,300 1,000 Climbing Edmonton Center
Tue 03:39:21 PM 51.0333 -114.5833 248° West 180 207 13,300 900 Climbing Edmonton Center
Tue 03:40:21 PM 51.0333 -114.6667 270° West 190 219 14,100 950 Climbing Edmonton Center
Tue 03:41:21 PM 51.0167 -114.7500 252° West 180 207 15,200 900 Climbing Edmonton Center
Tue 03:42:21 PM 51.0167 -114.8333 270° West 180 207 15,900 750 Climbing Edmonton Center
Tue 03:43:21 PM 51.0333 -114.9167 288° West 190 219 16,700 700 Climbing Edmonton Center
Tue 03:44:21 PM 51.0167 -115.0000 252° West 190 219 17,300 600 Climbing Edmonton Center
Tue 03:45:21 PM 51.0167 -115.1000 270° West 190 219 17,900 450 Climbing Edmonton Center
Tue 03:46:21 PM 51.0000 -115.1833 252° West 200 230 18,200 450 Climbing Edmonton Center
Tue 03:47:21 PM 51.0167 -115.2667 288° West 200 230 18,800 550 Climbing Edmonton Center
Tue 03:48:21 PM 51.0000 -115.3667 255° West 190 219 19,300 500 Climbing Edmonton Center
Tue 03:49:21 PM 51.0000 -115.4500 270° West 200 230 19,800 350 Climbing Edmonton Center
Tue 03:50:04 PM 51.0167 -115.4500 360° North 200 230 19,900 117 Climbing Vancouver Center
Tue 03:51:04 PM 51.0000 -115.5333 252° West 220 253 20,000 50 Climbing Vancouver Center
Tue 03:52:04 PM 50.9833 -115.6500 257° West 230 265 20,000  Level Vancouver Center
Tue 03:53:04 PM 51.0000 -115.7500 285° West 230 265 20,000  Level Vancouver Center
Tue 03:54:04 PM 50.9833 -115.8500 255° West 240 276 20,000  Level Vancouver Center
Tue 03:55:04 PM 50.9833 -115.9333 270° West 240 276 20,000  Level Vancouver Center
Tue 03:56:04 PM 50.9667 -116.0500 257° West 240 276 20,000  Level Vancouver Center
Tue 03:56:21 PM 50.9667 -116.1333 270° West 240 276 20,000  Level Edmonton Center
Tue 03:57:21 PM 50.9500 -116.2500 257° West 240 276 20,000  Level Edmonton Center
Tue 03:58:21 PM 50.9500 -116.3500 270° West 240 276 20,000  Level Edmonton Center
Tue 03:59:21 PM 50.9500 -116.4667 270° West 240 276 20,000  Level Edmonton Center
Tue 04:00:21 PM 50.9333 -116.5667 255° West 240 276 20,000  Level Edmonton Center
Tue 04:01:21 PM 50.9167 -116.6667 255° West 240 276 20,000  Level Edmonton Center
Tue 04:02:21 PM 50.9333 -116.7833 283° West 240 276 20,000  Level Edmonton Center
Tue 04:03:04 PM 50.9500 -116.8000 328° Northwest 240 276 20,000  Level Vancouver Center
Tue 04:04:04 PM 50.9333 -116.9000 255° West 240 276 20,000  Level Vancouver Center
Tue 04:05:04 PM 50.9333 -117.0167 270° West 240 276 20,000  Level Vancouver Center
Tue 04:06:04 PM 50.9167 -117.1167 255° West 240 276 20,000  Level Vancouver Center
Tue 04:07:04 PM 50.9000 -117.2000 252° West 240 276 20,000  Level Vancouver Center
Tue 04:08:04 PM 50.9167 -117.3000 285° West 240 276 20,000  Level Vancouver Center
Tue 04:09:04 PM 50.9000 -117.4167 257° West 240 276 20,000  Level Vancouver Center
Tue 04:10:04 PM 50.8833 -117.5167 255° West 240 276 20,000  Level Vancouver Center
Tue 04:11:04 PM 50.8833 -117.6333 270° West 240 276 20,000  Level Vancouver Center
Tue 04:12:04 PM 50.8833 -117.7333 270° West 240 276 20,000  Level Vancouver Center
Tue 04:13:04 PM 50.8667 -117.8333 255° West 240 276 20,000  Level Vancouver Center
Tue 04:14:04 PM 50.8667 -117.9500 270° West 240 276 20,000  Level Vancouver Center
Tue 04:15:04 PM 50.8500 -118.0500 255° West 240 276 20,000  Level Vancouver Center
Tue 04:16:04 PM 50.8500 -118.1667 270° West 240 276 20,000  Level Vancouver Center
Tue 04:17:04 PM 50.8167 -118.2500 238° Southwest 240 276 20,000  Level Vancouver Center
Tue 04:18:04 PM 50.8167 -118.3500 270° West 240 276 20,000  Level Vancouver Center
Tue 04:19:04 PM 50.7833 -118.4667 246° West 240 276 20,000  Level Vancouver Center
Tue 04:20:04 PM 50.7667 -118.5667 255° West 240 276 20,000  Level Vancouver Center
Tue 04:21:04 PM 50.7667 -118.6500 270° West 240 276 20,000  Level Vancouver Center
Tue 04:22:04 PM 50.7333 -118.7500 242° Southwest 220 253 20,000 -400 Level Vancouver Center
Tue 04:23:04 PM 50.7167 -118.8333 252° West 210 242 19,200 -900 Descending Vancouver Center
Tue 04:24:04 PM 50.7000 -118.9167 253° West 210 242 18,200 -900 Descending Vancouver Center
Tue 04:25:04 PM 50.6833 -119.0000 253° West 210 242 17,400 -900 Descending Vancouver Center
Tue 04:26:04 PM 50.6833 -119.0833 270° West 200 230 16,400 -1,000 Descending Vancouver Center
Tue 04:27:04 PM 50.6500 -119.1833 242° Southwest 200 230 15,400 -1,000 Descending Vancouver Center
Tue 04:28:04 PM 50.6333 -119.2667 253° West 200 230 14,400 -950 Descending Vancouver Center
Tue 04:29:04 PM 50.6167 -119.3500 253° West 200 230 13,500 -1,000 Descending Vancouver Center
Tue 04:30:04 PM 50.6000 -119.4333 253° West 200 230 12,400 -1,050 Descending Vancouver Center
Tue 04:31:04 PM 50.6000 -119.5167 270° West 200 230 11,400 -950 Descending Vancouver Center
Tue 04:32:04 PM 50.5833 -119.5833 249° West 210 242 10,500 -900 Descending Vancouver Center
Tue 04:33:04 PM 50.5667 -119.6667 253° West 200 230 9,600 -950 Descending Vancouver Center
Tue 04:34:04 PM 50.5667 -119.7500 270° West 190 219 8,600 -1,050 Descending Vancouver Center
Tue 04:35:04 PM 50.5833 -119.8333 288° West 180 207 7,500 -850 Descending Vancouver Center
Tue 04:36:04 PM 50.5833 -119.9000 270° West 180 207 6,900 -600 Descending Vancouver Center
Tue 04:37:04 PM 50.6167 -120.0167 294° West 190 219 6,300 -550 Descending Vancouver Center
Tue 04:38:04 PM 50.6333 -120.0833 292° West 200 230 5,800 -500 Descending Vancouver Center
Tue 04:39:04 PM 50.6333 -120.1667 270° West 200 230 5,300 -550 Descending Vancouver Center
Tue 04:40:04 PM 50.6500 -120.2500 288° West 200 230 4,700 -700 Descending Vancouver Center
Tue 04:41:04 PM 50.6833 -120.3167 308° West 210 242 3,900 -600 Descending Vancouver Center
Tue 04:42:04 PM 50.7000 -120.4000 288° West 190 219 3,500 -300 Descending Vancouver Center
Tue 04:43:04 PM 50.7167 -120.4833 288° West 170 196 3,300 -450 Descending Vancouver Center
Tue 04:44:04 PM 50.7167 -120.5333 270° West 140 161 2,600 -700 Descending Vancouver Center

Login

Don't have an account? Register now (free) for customized features, flight alerts, and more!